sensor_id;sensor_type;location;lat;lon;timestamp;P1;durP1;ratioP1;P2;durP2;ratioP2
64986;SDS011;67903;52.108;9.358;2023-09-30T00:02:44;14.35;;;4.70;;
64986;SDS011;67903;52.108;9.358;2023-09-30T00:05:30;10.00;;;4.38;;
64986;SDS011;67903;52.108;9.358;2023-09-30T00:08:15;9.35;;;4.03;;
64986;SDS011;67903;52.108;9.358;2023-09-30T00:11:01;7.90;;;3.78;;
64986;SDS011;67903;52.108;9.358;2023-09-30T00:13:46;13.60;;;4.57;;
64986;SDS011;67903;52.108;9.358;2023-09-30T00:16:34;10.73;;;3.70;;
64986;SDS011;67903;52.108;9.358;2023-09-30T00:19:20;9.63;;;4.00;;
64986;SDS011;67903;52.108;9.358;2023-09-30T00:22:07;10.95;;;4.18;;
64986;SDS011;67903;52.108;9.358;2023-09-30T00:24:53;8.30;;;4.13;;
64986;SDS011;67903;52.108;9.358;2023-09-30T00:27:38;10.00;;;4.20;;
64986;SDS011;67903;52.108;9.358;2023-09-30T00:30:24;8.25;;;3.97;;
64986;SDS011;67903;52.108;9.358;2023-09-30T00:33:09;10.50;;;4.28;;
64986;SDS011;67903;52.108;9.358;2023-09-30T00:35:55;9.32;;;3.78;;
64986;SDS011;67903;52.108;9.358;2023-09-30T00:38:41;12.38;;;4.07;;
64986;SDS011;67903;52.108;9.358;2023-09-30T00:41:27;10.18;;;4.00;;
64986;SDS011;67903;52.108;9.358;2023-09-30T00:44:13;9.73;;;3.90;;
64986;SDS011;67903;52.108;9.358;2023-09-30T00:46:59;12.43;;;4.38;;
64986;SDS011;67903;52.108;9.358;2023-09-30T00:49:44;7.72;;;3.90;;
64986;SDS011;67903;52.108;9.358;2023-09-30T00:52:33;11.30;;;4.15;;
64986;SDS011;67903;52.108;9.358;2023-09-30T00:55:19;9.15;;;4.28;;
64986;SDS011;67903;52.108;9.358;2023-09-30T00:58:06;9.60;;;4.20;;
64986;SDS011;67903;52.108;9.358;2023-09-30T01:00:52;12.10;;;4.72;;
64986;SDS011;67903;52.108;9.358;2023-09-30T01:03:38;9.27;;;4.22;;
64986;SDS011;67903;52.108;9.358;2023-09-30T01:06:23;14.30;;;4.63;;
64986;SDS011;67903;52.108;9.358;2023-09-30T01:09:09;12.38;;;4.55;;
64986;SDS011;67903;52.108;9.358;2023-09-30T01:11:55;9.00;;;3.75;;
64986;SDS011;67903;52.108;9.358;2023-09-30T01:14:41;9.05;;;4.22;;
64986;SDS011;67903;52.108;9.358;2023-09-30T01:17:27;8.48;;;4.22;;
64986;SDS011;67903;52.108;9.358;2023-09-30T01:20:14;13.50;;;4.20;;
64986;SDS011;67903;52.108;9.358;2023-09-30T01:23:07;13.35;;;3.83;;
64986;SDS011;67903;52.108;9.358;2023-09-30T01:25:52;11.52;;;4.40;;
64986;SDS011;67903;52.108;9.358;2023-09-30T01:28:38;10.63;;;3.88;;
64986;SDS011;67903;52.108;9.358;2023-09-30T01:31:24;13.02;;;4.43;;
64986;SDS011;67903;52.108;9.358;2023-09-30T01:34:09;11.60;;;3.90;;
64986;SDS011;67903;52.108;9.358;2023-09-30T01:36:55;10.65;;;4.50;;
64986;SDS011;67903;52.108;9.358;2023-09-30T01:39:41;8.23;;;3.70;;
64986;SDS011;67903;52.108;9.358;2023-09-30T01:42:26;10.07;;;4.47;;
64986;SDS011;67903;52.108;9.358;2023-09-30T01:45:12;10.15;;;3.67;;
64986;SDS011;67903;52.108;9.358;2023-09-30T01:47:58;13.60;;;4.18;;
64986;SDS011;67903;52.108;9.358;2023-09-30T01:50:44;8.18;;;3.90;;
64986;SDS011;67903;52.108;9.358;2023-09-30T01:53:29;10.05;;;3.78;;
64986;SDS011;67903;52.108;9.358;2023-09-30T01:56:15;10.38;;;4.25;;
64986;SDS011;67903;52.108;9.358;2023-09-30T01:59:00;9.63;;;4.50;;
64986;SDS011;67903;52.108;9.358;2023-09-30T02:01:46;10.45;;;3.85;;
64986;SDS011;67903;52.108;9.358;2023-09-30T02:04:34;11.90;;;3.90;;
64986;SDS011;67903;52.108;9.358;2023-09-30T02:07:19;10.13;;;4.20;;
64986;SDS011;67903;52.108;9.358;2023-09-30T02:10:06;12.18;;;4.18;;
64986;SDS011;67903;52.108;9.358;2023-09-30T02:12:53;7.80;;;4.22;;
64986;SDS011;67903;52.108;9.358;2023-09-30T02:15:42;11.73;;;3.92;;
64986;SDS011;67903;52.108;9.358;2023-09-30T02:18:28;9.95;;;4.28;;
64986;SDS011;67903;52.108;9.358;2023-09-30T02:21:17;12.00;;;4.38;;
64986;SDS011;67903;52.108;9.358;2023-09-30T02:24:03;9.98;;;4.43;;
64986;SDS011;67903;52.108;9.358;2023-09-30T02:26:52;9.30;;;4.47;;
64986;SDS011;67903;52.108;9.358;2023-09-30T02:29:39;12.90;;;4.40;;
64986;SDS011;67903;52.108;9.358;2023-09-30T02:32:25;9.63;;;4.55;;
64986;SDS011;67903;52.108;9.358;2023-09-30T02:35:11;11.13;;;4.35;;
64986;SDS011;67903;52.108;9.358;2023-09-30T02:37:58;14.25;;;4.60;;
64986;SDS011;67903;52.108;9.358;2023-09-30T02:40:44;10.15;;;4.43;;
64986;SDS011;67903;52.108;9.358;2023-09-30T02:43:31;10.60;;;4.53;;
64986;SDS011;67903;52.108;9.358;2023-09-30T02:46:17;8.40;;;3.92;;
64986;SDS011;67903;52.108;9.358;2023-09-30T02:49:04;7.68;;;3.80;;
64986;SDS011;67903;52.108;9.358;2023-09-30T02:51:49;9.52;;;4.10;;
64986;SDS011;67903;52.108;9.358;2023-09-30T02:54:35;10.52;;;3.95;;
64986;SDS011;67903;52.108;9.358;2023-09-30T02:57:20;9.35;;;4.00;;
64986;SDS011;67903;52.108;9.358;2023-09-30T03:00:08;12.57;;;4.47;;
64986;SDS011;67903;52.108;9.358;2023-09-30T03:03:09;8.90;;;3.78;;
64986;SDS011;67903;52.108;9.358;2023-09-30T03:05:54;10.00;;;4.10;;
64986;SDS011;67903;52.108;9.358;2023-09-30T03:08:40;11.75;;;4.20;;
64986;SDS011;67903;52.108;9.358;2023-09-30T03:11:25;9.80;;;3.92;;
64986;SDS011;67903;52.108;9.358;2023-09-30T03:14:12;8.00;;;3.83;;
64986;SDS011;67903;52.108;9.358;2023-09-30T03:16:58;11.40;;;4.68;;
64986;SDS011;67903;52.108;9.358;2023-09-30T03:19:44;11.43;;;4.25;;
64986;SDS011;67903;52.108;9.358;2023-09-30T03:22:29;9.25;;;4.63;;
64986;SDS011;67903;52.108;9.358;2023-09-30T03:25:16;11.20;;;4.13;;
64986;SDS011;67903;52.108;9.358;2023-09-30T03:28:02;14.82;;;4.70;;
64986;SDS011;67903;52.108;9.358;2023-09-30T03:30:50;12.93;;;4.97;;
64986;SDS011;67903;52.108;9.358;2023-09-30T03:33:37;11.70;;;4.40;;
64986;SDS011;67903;52.108;9.358;2023-09-30T03:36:22;12.40;;;4.60;;
64986;SDS011;67903;52.108;9.358;2023-09-30T03:39:11;8.40;;;4.30;;
64986;SDS011;67903;52.108;9.358;2023-09-30T03:42:00;9.68;;;3.95;;
64986;SDS011;67903;52.108;9.358;2023-09-30T03:44:45;9.35;;;4.07;;
64986;SDS011;67903;52.108;9.358;2023-09-30T03:47:33;11.10;;;4.43;;
64986;SDS011;67903;52.108;9.358;2023-09-30T03:50:20;8.20;;;4.35;;
64986;SDS011;67903;52.108;9.358;2023-09-30T03:53:08;10.73;;;4.65;;
64986;SDS011;67903;52.108;9.358;2023-09-30T03:55:54;8.35;;;4.30;;
64986;SDS011;67903;52.108;9.358;2023-09-30T03:58:40;11.13;;;4.13;;
64986;SDS011;67903;52.108;9.358;2023-09-30T04:01:27;10.52;;;4.40;;
64986;SDS011;67903;52.108;9.358;2023-09-30T04:04:13;10.77;;;3.90;;
64986;SDS011;67903;52.108;9.358;2023-09-30T04:06:58;8.55;;;3.92;;
64986;SDS011;67903;52.108;9.358;2023-09-30T04:09:44;10.35;;;3.78;;
64986;SDS011;67903;52.108;9.358;2023-09-30T04:12:30;11.30;;;4.40;;
64986;SDS011;67903;52.108;9.358;2023-09-30T04:15:17;10.27;;;4.05;;
64986;SDS011;67903;52.108;9.358;2023-09-30T04:18:04;12.43;;;4.55;;
64986;SDS011;67903;52.108;9.358;2023-09-30T04:20:53;11.63;;;4.50;;
64986;SDS011;67903;52.108;9.358;2023-09-30T04:23:38;10.90;;;4.07;;
64986;SDS011;67903;52.108;9.358;2023-09-30T04:26:24;9.38;;;4.78;;
64986;SDS011;67903;52.108;9.358;2023-09-30T04:29:10;13.07;;;4.82;;
64986;SDS011;67903;52.108;9.358;2023-09-30T04:31:56;10.15;;;4.28;;
64986;SDS011;67903;52.108;9.358;2023-09-30T04:34:42;14.43;;;5.63;;
64986;SDS011;67903;52.108;9.358;2023-09-30T04:37:30;8.98;;;4.63;;
64986;SDS011;67903;52.108;9.358;2023-09-30T04:40:17;10.13;;;4.47;;
64986;SDS011;67903;52.108;9.358;2023-09-30T04:43:05;8.38;;;4.25;;
64986;SDS011;67903;52.108;9.358;2023-09-30T04:45:51;9.40;;;4.10;;
64986;SDS011;67903;52.108;9.358;2023-09-30T04:48:37;9.88;;;4.63;;
64986;SDS011;67903;52.108;9.358;2023-09-30T04:51:23;10.43;;;4.40;;
64986;SDS011;67903;52.108;9.358;2023-09-30T04:54:11;8.52;;;4.40;;
64986;SDS011;67903;52.108;9.358;2023-09-30T04:56:56;14.60;;;4.38;;
64986;SDS011;67903;52.108;9.358;2023-09-30T04:59:42;10.90;;;3.95;;
64986;SDS011;67903;52.108;9.358;2023-09-30T05:02:27;7.22;;;3.92;;
64986;SDS011;67903;52.108;9.358;2023-09-30T05:05:13;10.27;;;4.22;;
64986;SDS011;67903;52.108;9.358;2023-09-30T05:08:00;8.55;;;4.43;;
64986;SDS011;67903;52.108;9.358;2023-09-30T05:10:45;9.27;;;4.50;;
64986;SDS011;67903;52.108;9.358;2023-09-30T05:13:31;8.98;;;4.10;;
64986;SDS011;67903;52.108;9.358;2023-09-30T05:16:19;14.25;;;5.00;;
64986;SDS011;67903;52.108;9.358;2023-09-30T05:19:04;13.02;;;5.25;;
64986;SDS011;67903;52.108;9.358;2023-09-30T05:21:50;10.18;;;4.82;;
64986;SDS011;67903;52.108;9.358;2023-09-30T05:24:36;12.45;;;4.40;;
64986;SDS011;67903;52.108;9.358;2023-09-30T05:27:21;10.27;;;4.47;;
64986;SDS011;67903;52.108;9.358;2023-09-30T05:30:08;11.63;;;4.75;;
64986;SDS011;67903;52.108;9.358;2023-09-30T05:32:56;11.13;;;4.50;;
64986;SDS011;67903;52.108;9.358;2023-09-30T05:35:41;13.02;;;4.72;;
64986;SDS011;67903;52.108;9.358;2023-09-30T05:38:27;11.90;;;4.78;;
64986;SDS011;67903;52.108;9.358;2023-09-30T05:41:13;9.93;;;4.50;;
64986;SDS011;67903;52.108;9.358;2023-09-30T05:43:59;10.30;;;4.72;;
64986;SDS011;67903;52.108;9.358;2023-09-30T05:46:45;12.32;;;4.95;;
64986;SDS011;67903;52.108;9.358;2023-09-30T05:49:30;11.70;;;6.40;;
64986;SDS011;67903;52.108;9.358;2023-09-30T05:52:16;10.77;;;5.00;;
64986;SDS011;67903;52.108;9.358;2023-09-30T05:55:02;10.45;;;4.05;;
64986;SDS011;67903;52.108;9.358;2023-09-30T05:57:49;10.38;;;4.72;;
64986;SDS011;67903;52.108;9.358;2023-09-30T06:00:35;11.35;;;4.03;;
64986;SDS011;67903;52.108;9.358;2023-09-30T06:03:21;10.85;;;4.65;;
64986;SDS011;67903;52.108;9.358;2023-09-30T06:06:13;10.95;;;4.47;;
64986;SDS011;67903;52.108;9.358;2023-09-30T06:09:00;8.82;;;4.45;;
64986;SDS011;67903;52.108;9.358;2023-09-30T06:11:46;10.50;;;4.13;;
64986;SDS011;67903;52.108;9.358;2023-09-30T06:14:32;8.95;;;4.72;;
64986;SDS011;67903;52.108;9.358;2023-09-30T06:17:17;8.88;;;4.65;;
64986;SDS011;67903;52.108;9.358;2023-09-30T06:20:05;11.05;;;4.75;;
64986;SDS011;67903;52.108;9.358;2023-09-30T06:23:01;9.50;;;4.05;;
64986;SDS011;67903;52.108;9.358;2023-09-30T06:25:46;13.45;;;5.05;;
64986;SDS011;67903;52.108;9.358;2023-09-30T06:28:32;8.77;;;4.30;;
64986;SDS011;67903;52.108;9.358;2023-09-30T06:31:23;11.18;;;5.00;;
64986;SDS011;67903;52.108;9.358;2023-09-30T06:34:09;10.00;;;5.45;;
64986;SDS011;67903;52.108;9.358;2023-09-30T06:36:56;11.73;;;5.18;;
64986;SDS011;67903;52.108;9.358;2023-09-30T06:39:41;13.95;;;5.10;;
64986;SDS011;67903;52.108;9.358;2023-09-30T06:42:27;11.95;;;5.55;;
64986;SDS011;67903;52.108;9.358;2023-09-30T06:45:13;13.70;;;5.53;;
64986;SDS011;67903;52.108;9.358;2023-09-30T06:47:59;15.05;;;5.90;;
64986;SDS011;67903;52.108;9.358;2023-09-30T06:50:44;17.25;;;6.13;;
64986;SDS011;67903;52.108;9.358;2023-09-30T06:53:33;13.55;;;5.85;;
64986;SDS011;67903;52.108;9.358;2023-09-30T06:56:18;12.85;;;5.53;;
64986;SDS011;67903;52.108;9.358;2023-09-30T06:59:04;11.00;;;5.38;;
64986;SDS011;67903;52.108;9.358;2023-09-30T07:01:49;18.20;;;5.82;;
64986;SDS011;67903;52.108;9.358;2023-09-30T07:04:35;8.85;;;5.05;;
64986;SDS011;67903;52.108;9.358;2023-09-30T07:07:20;10.95;;;5.97;;
64986;SDS011;67903;52.108;9.358;2023-09-30T07:10:06;12.75;;;5.70;;
64986;SDS011;67903;52.108;9.358;2023-09-30T07:12:52;11.73;;;5.68;;
64986;SDS011;67903;52.108;9.358;2023-09-30T07:15:38;10.25;;;5.28;;
64986;SDS011;67903;52.108;9.358;2023-09-30T07:18:24;15.05;;;5.82;;
64986;SDS011;67903;52.108;9.358;2023-09-30T07:21:10;13.38;;;5.40;;
64986;SDS011;67903;52.108;9.358;2023-09-30T07:23:56;13.07;;;5.50;;
64986;SDS011;67903;52.108;9.358;2023-09-30T07:26:42;13.95;;;5.53;;
64986;SDS011;67903;52.108;9.358;2023-09-30T07:29:27;12.45;;;6.40;;
64986;SDS011;67903;52.108;9.358;2023-09-30T07:32:13;13.98;;;5.25;;
64986;SDS011;67903;52.108;9.358;2023-09-30T07:34:59;9.27;;;4.80;;
64986;SDS011;67903;52.108;9.358;2023-09-30T07:37:45;13.98;;;4.95;;
64986;SDS011;67903;52.108;9.358;2023-09-30T07:40:31;12.25;;;5.40;;
64986;SDS011;67903;52.108;9.358;2023-09-30T07:43:17;10.00;;;4.65;;
64986;SDS011;67903;52.108;9.358;2023-09-30T07:46:06;11.70;;;4.90;;
64986;SDS011;67903;52.108;9.358;2023-09-30T07:48:52;13.77;;;5.03;;
64986;SDS011;67903;52.108;9.358;2023-09-30T07:51:38;9.27;;;4.68;;
64986;SDS011;67903;52.108;9.358;2023-09-30T07:54:24;13.70;;;4.43;;
64986;SDS011;67903;52.108;9.358;2023-09-30T07:57:16;11.02;;;5.20;;
64986;SDS011;67903;52.108;9.358;2023-09-30T08:00:01;23.58;;;14.10;;
64986;SDS011;67903;52.108;9.358;2023-09-30T08:02:53;11.52;;;4.72;;
64986;SDS011;67903;52.108;9.358;2023-09-30T08:05:38;13.18;;;5.38;;
64986;SDS011;67903;52.108;9.358;2023-09-30T08:08:24;15.88;;;6.25;;
64986;SDS011;67903;52.108;9.358;2023-09-30T08:11:10;10.10;;;4.80;;
64986;SDS011;67903;52.108;9.358;2023-09-30T08:13:55;9.10;;;4.15;;
64986;SDS011;67903;52.108;9.358;2023-09-30T08:16:43;11.80;;;4.90;;
64986;SDS011;67903;52.108;9.358;2023-09-30T08:19:29;11.02;;;4.70;;
64986;SDS011;67903;52.108;9.358;2023-09-30T08:22:14;11.95;;;4.65;;
64986;SDS011;67903;52.108;9.358;2023-09-30T08:25:00;9.70;;;4.22;;
64986;SDS011;67903;52.108;9.358;2023-09-30T08:27:46;12.27;;;4.65;;
64986;SDS011;67903;52.108;9.358;2023-09-30T08:30:35;10.55;;;4.28;;
64986;SDS011;67903;52.108;9.358;2023-09-30T08:33:21;10.05;;;4.35;;
64986;SDS011;67903;52.108;9.358;2023-09-30T08:36:06;10.52;;;5.13;;
64986;SDS011;67903;52.108;9.358;2023-09-30T08:38:53;11.18;;;4.32;;
64986;SDS011;67903;52.108;9.358;2023-09-30T08:41:39;25.52;;;15.70;;
64986;SDS011;67903;52.108;9.358;2023-09-30T08:44:24;15.73;;;7.90;;
64986;SDS011;67903;52.108;9.358;2023-09-30T08:47:11;11.43;;;4.78;;
64986;SDS011;67903;52.108;9.358;2023-09-30T08:49:56;12.95;;;4.32;;
64986;SDS011;67903;52.108;9.358;2023-09-30T08:52:51;11.02;;;4.10;;
64986;SDS011;67903;52.108;9.358;2023-09-30T08:55:38;9.20;;;4.57;;
64986;SDS011;67903;52.108;9.358;2023-09-30T08:58:27;9.73;;;4.40;;
64986;SDS011;67903;52.108;9.358;2023-09-30T09:01:14;10.05;;;4.07;;
64986;SDS011;67903;52.108;9.358;2023-09-30T09:04:00;9.60;;;4.50;;
64986;SDS011;67903;52.108;9.358;2023-09-30T09:06:46;7.90;;;4.10;;
64986;SDS011;67903;52.108;9.358;2023-09-30T09:09:31;9.45;;;4.25;;
64986;SDS011;67903;52.108;9.358;2023-09-30T09:12:18;7.15;;;3.63;;
64986;SDS011;67903;52.108;9.358;2023-09-30T09:15:05;8.30;;;4.20;;
64986;SDS011;67903;52.108;9.358;2023-09-30T09:17:52;10.68;;;4.03;;
64986;SDS011;67903;52.108;9.358;2023-09-30T09:20:37;6.90;;;3.95;;
64986;SDS011;67903;52.108;9.358;2023-09-30T09:23:23;8.57;;;3.92;;
64986;SDS011;67903;52.108;9.358;2023-09-30T09:26:09;14.10;;;4.03;;
64986;SDS011;67903;52.108;9.358;2023-09-30T09:28:59;11.63;;;4.95;;
64986;SDS011;67903;52.108;9.358;2023-09-30T09:31:49;15.68;;;4.15;;
64986;SDS011;67903;52.108;9.358;2023-09-30T09:34:35;11.52;;;3.78;;
64986;SDS011;67903;52.108;9.358;2023-09-30T09:37:20;9.85;;;2.90;;
64986;SDS011;67903;52.108;9.358;2023-09-30T09:40:08;9.07;;;4.75;;
64986;SDS011;67903;52.108;9.358;2023-09-30T09:42:55;9.13;;;4.85;;
64986;SDS011;67903;52.108;9.358;2023-09-30T09:45:42;7.18;;;3.13;;
64986;SDS011;67903;52.108;9.358;2023-09-30T09:48:28;5.75;;;3.25;;
64986;SDS011;67903;52.108;9.358;2023-09-30T09:51:14;7.30;;;3.45;;
64986;SDS011;67903;52.108;9.358;2023-09-30T09:54:01;7.05;;;3.35;;
64986;SDS011;67903;52.108;9.358;2023-09-30T09:56:49;8.93;;;3.47;;
64986;SDS011;67903;52.108;9.358;2023-09-30T09:59:36;7.65;;;3.53;;
64986;SDS011;67903;52.108;9.358;2023-09-30T10:02:21;5.53;;;3.20;;
64986;SDS011;67903;52.108;9.358;2023-09-30T10:05:08;5.28;;;2.97;;
64986;SDS011;67903;52.108;9.358;2023-09-30T10:07:57;8.35;;;3.65;;
64986;SDS011;67903;52.108;9.358;2023-09-30T10:10:47;8.25;;;3.83;;
64986;SDS011;67903;52.108;9.358;2023-09-30T10:19:27;8.98;;;3.28;;
64986;SDS011;67903;52.108;9.358;2023-09-30T10:25:53;8.02;;;2.95;;
64986;SDS011;67903;52.108;9.358;2023-09-30T10:28:32;7.63;;;3.10;;
64986;SDS011;67903;52.108;9.358;2023-09-30T10:31:21;8.60;;;3.20;;
64986;SDS011;67903;52.108;9.358;2023-09-30T10:36:56;6.28;;;3.38;;
64986;SDS011;67903;52.108;9.358;2023-09-30T10:39:58;6.80;;;3.03;;
64986;SDS011;67903;52.108;9.358;2023-09-30T10:42:47;5.65;;;2.97;;
64986;SDS011;67903;52.108;9.358;2023-09-30T10:51:22;11.98;;;3.25;;
64986;SDS011;67903;52.108;9.358;2023-09-30T10:54:07;7.38;;;3.20;;
64986;SDS011;67903;52.108;9.358;2023-09-30T10:56:52;6.43;;;2.92;;
64986;SDS011;67903;52.108;9.358;2023-09-30T10:59:38;7.15;;;3.50;;
64986;SDS011;67903;52.108;9.358;2023-09-30T11:02:24;6.60;;;3.22;;
64986;SDS011;67903;52.108;9.358;2023-09-30T11:05:11;6.13;;;3.13;;
64986;SDS011;67903;52.108;9.358;2023-09-30T11:07:58;6.50;;;3.10;;
64986;SDS011;67903;52.108;9.358;2023-09-30T11:10:48;5.10;;;2.63;;
64986;SDS011;67903;52.108;9.358;2023-09-30T11:13:36;4.57;;;2.65;;
64986;SDS011;67903;52.108;9.358;2023-09-30T11:16:21;5.82;;;2.95;;
64986;SDS011;67903;52.108;9.358;2023-09-30T11:19:07;6.18;;;2.88;;
64986;SDS011;67903;52.108;9.358;2023-09-30T11:21:54;4.97;;;2.53;;
64986;SDS011;67903;52.108;9.358;2023-09-30T11:24:40;6.72;;;2.47;;
64986;SDS011;67903;52.108;9.358;2023-09-30T11:27:26;4.82;;;2.75;;
64986;SDS011;67903;52.108;9.358;2023-09-30T11:30:12;9.63;;;2.70;;
64986;SDS011;67903;52.108;9.358;2023-09-30T11:32:58;6.07;;;2.35;;
64986;SDS011;67903;52.108;9.358;2023-09-30T11:35:55;4.20;;;2.03;;
64986;SDS011;67903;52.108;9.358;2023-09-30T11:38:45;4.90;;;2.22;;
64986;SDS011;67903;52.108;9.358;2023-09-30T11:41:33;6.43;;;2.53;;
64986;SDS011;67903;52.108;9.358;2023-09-30T11:44:21;4.43;;;2.40;;
64986;SDS011;67903;52.108;9.358;2023-09-30T11:47:06;5.10;;;2.50;;
64986;SDS011;67903;52.108;9.358;2023-09-30T11:49:53;3.60;;;1.92;;
64986;SDS011;67903;52.108;9.358;2023-09-30T11:52:39;5.43;;;2.17;;
64986;SDS011;67903;52.108;9.358;2023-09-30T11:55:31;3.33;;;1.92;;
64986;SDS011;67903;52.108;9.358;2023-09-30T11:58:17;3.60;;;2.13;;
64986;SDS011;67903;52.108;9.358;2023-09-30T12:01:04;5.60;;;2.15;;
64986;SDS011;67903;52.108;9.358;2023-09-30T12:03:52;5.80;;;2.45;;
64986;SDS011;67903;52.108;9.358;2023-09-30T12:06:42;2.88;;;1.90;;
64986;SDS011;67903;52.108;9.358;2023-09-30T12:09:28;3.95;;;2.22;;
64986;SDS011;67903;52.108;9.358;2023-09-30T12:12:14;4.53;;;2.15;;
64986;SDS011;67903;52.108;9.358;2023-09-30T12:15:01;4.85;;;2.20;;
64986;SDS011;67903;52.108;9.358;2023-09-30T12:17:47;4.63;;;2.20;;
64986;SDS011;67903;52.108;9.358;2023-09-30T12:20:33;4.68;;;2.30;;
64986;SDS011;67903;52.108;9.358;2023-09-30T12:23:19;7.28;;;2.40;;
64986;SDS011;67903;52.108;9.358;2023-09-30T12:26:04;5.47;;;2.47;;
64986;SDS011;67903;52.108;9.358;2023-09-30T12:28:59;3.78;;;2.22;;
64986;SDS011;67903;52.108;9.358;2023-09-30T12:31:45;4.72;;;2.05;;
64986;SDS011;67903;52.108;9.358;2023-09-30T12:34:37;5.38;;;2.13;;
64986;SDS011;67903;52.108;9.358;2023-09-30T12:37:23;4.32;;;2.00;;
64986;SDS011;67903;52.108;9.358;2023-09-30T12:40:08;8.27;;;2.45;;
64986;SDS011;67903;52.108;9.358;2023-09-30T12:42:56;4.47;;;2.13;;
64986;SDS011;67903;52.108;9.358;2023-09-30T12:45:43;4.05;;;2.17;;
64986;SDS011;67903;52.108;9.358;2023-09-30T12:48:28;5.72;;;2.58;;
64986;SDS011;67903;52.108;9.358;2023-09-30T12:51:14;5.45;;;1.90;;
64986;SDS011;67903;52.108;9.358;2023-09-30T12:54:00;5.38;;;2.72;;
64986;SDS011;67903;52.108;9.358;2023-09-30T12:56:46;4.72;;;2.35;;
64986;SDS011;67903;52.108;9.358;2023-09-30T12:59:33;6.47;;;2.40;;
64986;SDS011;67903;52.108;9.358;2023-09-30T13:02:19;6.03;;;2.45;;
64986;SDS011;67903;52.108;9.358;2023-09-30T13:05:05;3.30;;;2.22;;
64986;SDS011;67903;52.108;9.358;2023-09-30T13:07:52;6.85;;;2.38;;
64986;SDS011;67903;52.108;9.358;2023-09-30T13:10:37;6.18;;;2.30;;
64986;SDS011;67903;52.108;9.358;2023-09-30T13:13:23;4.28;;;2.45;;
64986;SDS011;67903;52.108;9.358;2023-09-30T13:16:10;5.38;;;2.40;;
64986;SDS011;67903;52.108;9.358;2023-09-30T13:18:57;4.93;;;2.35;;
64986;SDS011;67903;52.108;9.358;2023-09-30T13:21:43;5.93;;;2.75;;
64986;SDS011;67903;52.108;9.358;2023-09-30T13:24:29;7.32;;;2.60;;
64986;SDS011;67903;52.108;9.358;2023-09-30T13:27:14;4.90;;;3.00;;
64986;SDS011;67903;52.108;9.358;2023-09-30T13:30:01;4.53;;;2.20;;
64986;SDS011;67903;52.108;9.358;2023-09-30T13:32:46;6.25;;;2.97;;
64986;SDS011;67903;52.108;9.358;2023-09-30T13:35:32;3.92;;;2.70;;
64986;SDS011;67903;52.108;9.358;2023-09-30T13:38:18;6.13;;;2.72;;
64986;SDS011;67903;52.108;9.358;2023-09-30T13:41:04;6.63;;;2.67;;
64986;SDS011;67903;52.108;9.358;2023-09-30T13:43:50;4.43;;;2.88;;
64986;SDS011;67903;52.108;9.358;2023-09-30T13:46:35;4.82;;;2.10;;
64986;SDS011;67903;52.108;9.358;2023-09-30T13:49:21;5.60;;;2.88;;
64986;SDS011;67903;52.108;9.358;2023-09-30T13:52:07;3.92;;;2.38;;
64986;SDS011;67903;52.108;9.358;2023-09-30T13:54:53;5.13;;;2.63;;
64986;SDS011;67903;52.108;9.358;2023-09-30T13:57:40;5.30;;;2.70;;
64986;SDS011;67903;52.108;9.358;2023-09-30T14:00:25;5.43;;;2.95;;
64986;SDS011;67903;52.108;9.358;2023-09-30T14:03:11;4.03;;;2.53;;
64986;SDS011;67903;52.108;9.358;2023-09-30T14:05:56;5.75;;;2.88;;
64986;SDS011;67903;52.108;9.358;2023-09-30T14:08:42;4.38;;;2.35;;
64986;SDS011;67903;52.108;9.358;2023-09-30T14:11:27;5.65;;;2.65;;
64986;SDS011;67903;52.108;9.358;2023-09-30T14:14:15;4.93;;;2.55;;
64986;SDS011;67903;52.108;9.358;2023-09-30T14:17:01;3.65;;;2.42;;
64986;SDS011;67903;52.108;9.358;2023-09-30T14:19:52;5.85;;;2.92;;
64986;SDS011;67903;52.108;9.358;2023-09-30T14:22:38;6.13;;;2.55;;
64986;SDS011;67903;52.108;9.358;2023-09-30T14:25:24;4.55;;;2.65;;
64986;SDS011;67903;52.108;9.358;2023-09-30T14:28:10;3.42;;;2.28;;
64986;SDS011;67903;52.108;9.358;2023-09-30T14:30:55;7.85;;;2.75;;
64986;SDS011;67903;52.108;9.358;2023-09-30T14:33:41;7.32;;;4.35;;
64986;SDS011;67903;52.108;9.358;2023-09-30T14:36:27;5.35;;;2.60;;
64986;SDS011;67903;52.108;9.358;2023-09-30T14:39:12;5.00;;;2.72;;
64986;SDS011;67903;52.108;9.358;2023-09-30T14:41:59;7.15;;;3.50;;
64986;SDS011;67903;52.108;9.358;2023-09-30T14:44:44;6.47;;;2.70;;
64986;SDS011;67903;52.108;9.358;2023-09-30T14:47:30;4.05;;;2.10;;
64986;SDS011;67903;52.108;9.358;2023-09-30T14:50:15;4.68;;;2.30;;
64986;SDS011;67903;52.108;9.358;2023-09-30T14:53:01;2.97;;;2.17;;
64986;SDS011;67903;52.108;9.358;2023-09-30T14:55:47;5.55;;;2.33;;
64986;SDS011;67903;52.108;9.358;2023-09-30T14:58:33;4.05;;;2.38;;
64986;SDS011;67903;52.108;9.358;2023-09-30T15:01:18;4.85;;;2.55;;
64986;SDS011;67903;52.108;9.358;2023-09-30T15:04:05;5.40;;;2.50;;
64986;SDS011;67903;52.108;9.358;2023-09-30T15:06:55;3.55;;;2.40;;
64986;SDS011;67903;52.108;9.358;2023-09-30T15:09:40;5.18;;;2.58;;
64986;SDS011;67903;52.108;9.358;2023-09-30T15:12:28;5.47;;;2.70;;
64986;SDS011;67903;52.108;9.358;2023-09-30T15:15:13;5.15;;;2.53;;
64986;SDS011;67903;52.108;9.358;2023-09-30T15:17:59;5.60;;;2.65;;
64986;SDS011;67903;52.108;9.358;2023-09-30T15:20:46;4.82;;;2.65;;
64986;SDS011;67903;52.108;9.358;2023-09-30T15:23:33;6.03;;;3.05;;
64986;SDS011;67903;52.108;9.358;2023-09-30T15:26:20;6.65;;;3.00;;
64986;SDS011;67903;52.108;9.358;2023-09-30T15:29:06;5.55;;;2.83;;
64986;SDS011;67903;52.108;9.358;2023-09-30T15:31:52;6.13;;;3.38;;
64986;SDS011;67903;52.108;9.358;2023-09-30T15:34:37;5.53;;;3.10;;
64986;SDS011;67903;52.108;9.358;2023-09-30T15:37:25;5.70;;;3.08;;
64986;SDS011;67903;52.108;9.358;2023-09-30T15:40:11;5.88;;;3.13;;
64986;SDS011;67903;52.108;9.358;2023-09-30T15:43:02;8.18;;;3.20;;
64986;SDS011;67903;52.108;9.358;2023-09-30T15:45:48;4.38;;;2.78;;
64986;SDS011;67903;52.108;9.358;2023-09-30T15:48:34;5.38;;;3.22;;
64986;SDS011;67903;52.108;9.358;2023-09-30T15:51:20;4.53;;;2.88;;
64986;SDS011;67903;52.108;9.358;2023-09-30T15:54:06;6.68;;;3.33;;
64986;SDS011;67903;52.108;9.358;2023-09-30T15:56:52;7.18;;;3.38;;
64986;SDS011;67903;52.108;9.358;2023-09-30T15:59:40;7.25;;;3.58;;
64986;SDS011;67903;52.108;9.358;2023-09-30T16:02:27;5.78;;;3.35;;
64986;SDS011;67903;52.108;9.358;2023-09-30T16:05:13;9.70;;;4.00;;
64986;SDS011;67903;52.108;9.358;2023-09-30T16:07:59;6.43;;;3.95;;
64986;SDS011;67903;52.108;9.358;2023-09-30T16:10:45;7.18;;;3.78;;
64986;SDS011;67903;52.108;9.358;2023-09-30T16:13:31;7.28;;;4.53;;
64986;SDS011;67903;52.108;9.358;2023-09-30T16:16:17;7.80;;;3.92;;
64986;SDS011;67903;52.108;9.358;2023-09-30T16:19:03;7.85;;;4.28;;
64986;SDS011;67903;52.108;9.358;2023-09-30T16:21:49;5.45;;;3.88;;
64986;SDS011;67903;52.108;9.358;2023-09-30T16:24:35;7.50;;;4.38;;
64986;SDS011;67903;52.108;9.358;2023-09-30T16:27:21;7.07;;;4.47;;
64986;SDS011;67903;52.108;9.358;2023-09-30T16:30:07;7.78;;;4.60;;
64986;SDS011;67903;52.108;9.358;2023-09-30T16:32:52;7.65;;;4.68;;
64986;SDS011;67903;52.108;9.358;2023-09-30T16:35:38;7.90;;;4.25;;
64986;SDS011;67903;52.108;9.358;2023-09-30T16:38:24;7.80;;;4.45;;
64986;SDS011;67903;52.108;9.358;2023-09-30T16:41:10;8.43;;;3.97;;
64986;SDS011;67903;52.108;9.358;2023-09-30T16:43:55;7.20;;;3.70;;
64986;SDS011;67903;52.108;9.358;2023-09-30T16:46:41;7.43;;;4.05;;
64986;SDS011;67903;52.108;9.358;2023-09-30T16:49:27;7.38;;;4.03;;
64986;SDS011;67903;52.108;9.358;2023-09-30T16:52:12;7.20;;;4.20;;
64986;SDS011;67903;52.108;9.358;2023-09-30T16:54:58;7.45;;;4.18;;
64986;SDS011;67903;52.108;9.358;2023-09-30T16:57:45;9.48;;;5.40;;